Ana Sayfa
METAR-TAF:

METAR-TAF

Havaalanları :

Ağrı Ahmed-i Hani Havalimanı

Ağrı, Türkiye

Enlem: 39-39-16N, Boylam: 43-01-38E, yükseklik: 1665 m

Güncel hava durumu gözlemi

Rapor saat 08:50 UTC de 40 dakika önce yapıldı.
Rüzgar değişken yönden 2 kt
Sıcaklık 4°C
Nem 60%
Basınç 1024 hPa
Görüş mesafesi 10 km veya daha fazla
1500 m altında bulut yok ve kümülonimbus yok

METAR: LTCO 190850Z VRB02KT CAVOK 04/M03 Q1024

Saat: 12:30 (09:30 UTC)

Tahmin

Rapor saat 07:40 UTC de 1 saat ve 50 dakika önce yapıldı.
Ayın 19'si saat 09 UTC'den ayın 19'si saat 18 UTC'ye kadar geçerli Tahmin
Rüzgar değişken yönden 2 kt
Görüş mesafesi 10 km veya daha fazla
1500 m altında bulut yok ve kümülonimbus yok

TAF: LTCO 190740Z 1909/1918 VRB02KT CAVOK

4.000'den fazla havaalanı için hava durumu gözlemleri ve tahminleri (METAR ve TAF raporları).

Kullanılabilir istasyonlar harita üzerinde sarı ve kırmızı noktalarla gösterilir.

İstasyonun adını görmek için fareyi noktanın üzerinde gezdirin.

Sonrasında hava gözlem ve tahminlerini görmek için tıklayın.

Haritayı değiştirmek için: yaklaştırmak için siyah artı işaretli yeşil düğmeye ve uzaklaştırmak için de eksi işaretli düğmeye hızla tıklayın; bitişik haritalar için yeşil okları kullanın.


METAR-TAF: